Accueil
METAR-TAF:

METAR-TAF

Aéroports :

Aéroport de Guidonia

Guidonia Montecelio, Italie

latitude: 42-00N, longitude: 012-44E, altitude: 88 m

Observation

Le bulletin a été fait il y a 25 minutes, à 06:55 UTC
Vent 5 kt de nord/nord-est
Température 2°C
Humidité 93%
Pression 1024 hPa
Visibilité 10 km ou plus
pas de nuages en-dessous de 1500 mètres et pas de cumulonimbus.

METAR: LIRG 210655Z 03005KT CAVOK 02/01 Q1024 RMK SKC MON NE LIB NC VIS MIN 9999 BLU

Heure: 08:20 (07:20 UTC)

Prévision

Le bulletin a été fait il y a 1 heure et 20 minutes, à 06:00 UTC
Prévision valable du 21 à 07 UTC au 21 à 15 UTC
Vent 3 kt de direction variable
Visibilité 10 km ou plus
pas de nuages en-dessous de 1500 mètres et pas de cumulonimbus.

TAF: LIRG 210600Z 2107/2115 VRB03KT CAVOK

Observations et prévisions météorologiques de plus de 4000 aéroports (messages METAR et TAF).

Les stations disponibles sont représentées par des disques jaunes et rouges sur la carte.

Passer la souris dessus pour voir le nom de la station.

Cliquer dessus pour voir les observations et prévisions météorologiques.

Pour changer de carte: cliquez sur les boutons verts avec une croix noire pour zoomer, sur le bouton vert avec un tiret pour effectuer un zoom arrière, ou sur les flèches vertes pour les cartes adjacentes.


METAR-TAF: